Terminal Aerodrome Forecast
Issued by NWS

Home | Current Version | Previous Version | Graphics & Text | Print | Product List | Glossary On
Versions: 1 2 3 4 5 6 7 8 9 10 11 12 13 14 15 16 17 18 19 20 21
000
FTUS43 KGRB 171730
TAFATW
TAF
KATW 171730Z 1718/1818 22015G24KT P6SM -SHRA SCT025 OVC050
      TEMPO 1718/1720 4SM SHRA BKN025
     FM172000 23017G27KT P6SM VCSH BKN025 OVC040
     FM180000 26014G22KT P6SM VCSH SCT015 OVC025
      TEMPO 1800/1804 BKN015
     FM180600 29012G19KT P6SM BKN025
     FM181600 30014G22KT P6SM SCT025 BKN050=

USA.gov is the U.S. government's official web portal to all federal, state and local government web resources and services.